createdAt,value
2022-08-22T00:02:58.484Z,99.07
2022-08-22T00:03:00.350Z,98.25
2022-08-22T00:03:04.818Z,96.67
2022-08-22T00:03:09.129Z,75.79
2022-08-22T05:29:30.698Z,98.58
2022-08-22T05:30:09.627Z,98.18
2022-08-22T05:31:09.581Z,97.88
2022-08-22T05:32:09.582Z,97.53
2022-08-22T05:33:09.643Z,97.63
2022-08-22T05:34:09.645Z,97.33
2022-08-22T05:35:09.505Z,96.83
2022-08-22T05:36:09.682Z,96.52
2022-08-22T05:37:09.651Z,96.22
2022-08-22T05:38:09.494Z,95.47
2022-08-22T05:39:09.464Z,95.67
2022-08-22T05:40:09.462Z,95.07
2022-08-22T05:41:09.485Z,95.12
2022-08-22T05:42:09.424Z,94.92
2022-08-22T05:43:09.624Z,94.52
2022-08-22T05:44:09.374Z,94.62
2022-08-22T05:45:12.259Z,94.07
2022-08-22T05:46:09.435Z,93.77
2022-08-22T05:47:09.506Z,93.37
2022-08-22T05:48:09.459Z,92.61
2022-08-22T05:49:09.437Z,92.61
2022-08-22T05:50:09.296Z,92.41
2022-08-22T05:51:09.259Z,91.87
2022-08-22T05:52:09.327Z,90.77
2022-08-22T05:53:09.528Z,90.62
2022-08-22T05:54:09.497Z,89.92
2022-08-22T05:55:09.229Z,90.78
2022-08-22T05:56:09.310Z,88.57
2022-08-22T05:57:09.366Z,88.02
2022-08-22T05:58:09.199Z,88.59
2022-08-22T05:59:09.408Z,87.68
2022-08-22T06:00:09.211Z,86.68
2022-08-22T06:01:09.163Z,86.30
2022-08-22T06:02:09.255Z,85.89
2022-08-22T06:03:09.101Z,85.25
2022-08-22T06:04:09.129Z,84.41
2022-08-22T06:05:12.014Z,83.25
2022-08-22T06:06:09.088Z,84.01
2022-08-22T06:07:09.100Z,83.27
2022-08-22T06:08:09.462Z,82.77
2022-08-22T06:09:09.148Z,82.37
2022-08-22T06:10:09.038Z,81.93
2022-08-22T06:11:09.027Z,82.13
2022-08-22T06:12:10.840Z,80.83
2022-08-22T06:13:11.630Z,82.23
2022-08-22T06:14:08.947Z,81.83
2022-08-22T06:15:11.777Z,81.33
2022-08-22T06:16:09.352Z,82.27
2022-08-22T06:17:08.978Z,81.87
2022-08-22T06:18:08.953Z,82.57
2022-08-22T06:19:19.361Z,82.21
2022-08-22T06:20:09.875Z,83.11
2022-08-22T06:21:08.889Z,82.57
2022-08-22T06:22:11.730Z,82.47
2022-08-22T06:23:10.680Z,82.01
2022-08-22T06:24:08.811Z,83.07
2022-08-22T06:25:08.869Z,82.67
2022-08-22T06:26:20.549Z,82.77
2022-08-22T06:27:10.755Z,82.87
2022-08-22T06:28:08.826Z,83.81
2022-08-22T06:29:08.788Z,85.15
2022-08-22T06:30:08.719Z,84.75
2022-08-22T06:31:08.718Z,85.25
2022-08-22T06:32:08.715Z,85.89
2022-08-22T06:33:12.272Z,86.60
2022-08-22T06:34:09.608Z,86.84
2022-08-22T06:35:08.633Z,87.34
2022-08-22T06:36:08.655Z,87.94
2022-08-22T06:37:08.647Z,87.90
2022-08-22T06:38:09.049Z,86.66
2022-08-22T06:39:08.616Z,86.11
2022-08-22T06:40:08.749Z,85.51
2022-08-22T06:41:08.569Z,85.07
2022-08-22T06:42:11.159Z,85.71
2022-08-22T06:43:08.530Z,85.41
2022-08-22T06:44:08.559Z,85.82
2022-08-22T06:45:08.508Z,86.85
2022-08-22T06:46:08.494Z,86.25
2022-08-22T06:47:08.506Z,87.96
2022-08-22T06:48:08.508Z,87.66
2022-08-22T06:49:08.602Z,87.40
2022-08-22T06:50:08.470Z,87.30
2022-08-22T06:51:09.454Z,87.60
2022-08-22T06:52:08.500Z,87.80
2022-08-22T06:53:08.596Z,87.90
2022-08-22T06:54:08.473Z,87.20
2022-08-22T06:55:08.372Z,87.00
2022-08-22T06:56:09.264Z,87.20
2022-08-22T06:57:08.377Z,87.50
2022-08-22T06:58:08.333Z,88.10
2022-08-22T06:59:08.350Z,88.16
2022-08-22T07:00:08.296Z,88.46
2022-08-22T07:01:12.388Z,87.36
2022-08-22T07:02:08.383Z,87.26
2022-08-22T07:03:08.334Z,88.06
2022-08-22T07:04:08.339Z,88.06
2022-08-22T07:05:08.279Z,87.86
2022-08-22T07:06:09.066Z,87.46
2022-08-22T07:07:08.218Z,87.96
2022-08-22T07:08:08.337Z,87.62
2022-08-22T07:09:08.252Z,87.32
2022-08-22T07:10:08.276Z,86.98
2022-08-22T07:11:08.556Z,84.63
2022-08-22T07:12:08.163Z,83.39
2022-08-22T07:13:08.202Z,83.29
2022-08-22T07:14:08.192Z,83.73
2022-08-22T07:15:08.154Z,84.23
2022-08-22T07:16:08.256Z,84.33
2022-08-22T07:17:08.174Z,84.07
2022-08-22T07:18:08.157Z,84.17
2022-08-22T07:19:08.094Z,84.27
2022-08-22T07:20:08.110Z,84.17
2022-08-22T07:21:08.123Z,83.93
2022-08-22T07:22:08.060Z,82.13
2022-08-22T07:23:08.098Z,82.03
2022-08-22T07:24:08.017Z,82.51
2022-08-22T07:25:08.180Z,81.13
2022-08-22T07:26:07.995Z,79.20
2022-08-22T07:27:07.978Z,79.13
2022-08-22T07:28:08.015Z,75.50
2022-08-22T07:29:11.233Z,76.32
2022-08-22T07:30:10.258Z,74.26
2022-08-22T07:31:07.980Z,72.11
2022-08-22T07:32:08.920Z,69.20
2022-08-22T07:33:25.657Z,69.26
2022-08-22T07:34:08.960Z,67.57
2022-08-22T07:35:07.875Z,68.50
2022-08-22T07:36:08.103Z,66.52
2022-08-22T07:37:08.259Z,66.28
2022-08-22T07:38:07.820Z,65.76
2022-08-22T07:39:07.803Z,66.62
2022-08-22T07:40:07.866Z,66.09
2022-08-22T07:41:07.845Z,64.58
2022-08-22T07:42:07.794Z,63.49
2022-08-22T07:43:08.595Z,63.85
2022-08-22T07:44:07.738Z,64.42
2022-08-22T07:45:07.727Z,62.34
2022-08-22T07:46:07.685Z,61.05
2022-08-22T07:47:07.828Z,62.24
2022-08-22T07:48:07.708Z,61.91
2022-08-22T07:49:09.434Z,60.80
2022-08-22T07:50:07.707Z,60.90
2022-08-22T07:51:07.797Z,59.88
2022-08-22T07:52:07.621Z,59.09
2022-08-22T07:53:07.685Z,59.95
2022-08-22T07:54:07.634Z,60.22
2022-08-22T07:55:07.789Z,60.02
2022-08-22T07:56:07.671Z,58.28
2022-08-22T07:57:07.813Z,58.67
2022-08-22T07:58:07.701Z,58.94
2022-08-22T07:59:12.757Z,59.63
2022-08-22T08:00:08.508Z,59.63
2022-08-22T08:01:07.560Z,56.57
2022-08-22T08:02:07.675Z,57.39
2022-08-22T08:03:08.469Z,57.17
2022-08-22T08:04:07.517Z,57.26
2022-08-22T08:05:08.294Z,57.23
2022-08-22T08:06:07.439Z,57.04
2022-08-22T08:07:07.430Z,56.15
2022-08-22T08:08:07.521Z,56.74
2022-08-22T08:09:07.468Z,57.60
2022-08-22T08:10:12.755Z,55.83
2022-08-22T08:11:07.367Z,56.74
2022-08-22T08:12:07.368Z,57.21
2022-08-22T08:13:07.382Z,57.31
2022-08-22T08:14:07.423Z,57.28
2022-08-22T08:15:07.408Z,53.81
2022-08-22T08:16:07.331Z,56.46
2022-08-22T08:17:07.308Z,57.03
2022-08-22T08:18:08.053Z,54.76
2022-08-22T08:19:07.325Z,55.06
2022-08-22T08:20:07.474Z,55.68
2022-08-22T08:21:07.252Z,54.52
2022-08-22T08:22:07.248Z,53.64
2022-08-22T08:23:07.194Z,54.00
2022-08-22T08:24:07.984Z,56.20
2022-08-22T08:25:07.174Z,54.72
2022-08-22T08:26:07.210Z,55.31
2022-08-22T08:27:07.955Z,55.58
2022-08-22T08:28:07.205Z,53.81
2022-08-22T08:29:07.158Z,54.10
2022-08-22T08:30:07.128Z,52.33
2022-08-22T08:31:07.140Z,54.60
2022-08-22T08:32:07.096Z,53.61
2022-08-22T08:33:25.296Z,52.11
2022-08-22T08:34:08.080Z,52.80
2022-08-22T08:35:07.111Z,54.17
2022-08-22T08:36:07.079Z,52.60
2022-08-22T08:37:07.131Z,53.27
2022-08-22T08:38:07.020Z,53.16
2022-08-22T08:39:07.011Z,52.94
2022-08-22T08:40:07.836Z,52.15
2022-08-22T08:41:06.990Z,52.82
2022-08-22T08:42:07.400Z,52.03
2022-08-22T08:43:10.712Z,49.97
2022-08-22T08:44:07.822Z,51.52
2022-08-22T08:45:07.783Z,50.24
2022-08-22T08:46:06.937Z,49.95
2022-08-22T08:47:06.913Z,50.90
2022-08-22T08:48:06.944Z,49.73
2022-08-22T08:49:07.638Z,51.81
2022-08-22T08:50:07.136Z,52.20
2022-08-22T08:51:06.885Z,50.63
2022-08-22T08:52:07.057Z,49.95
2022-08-22T08:53:06.865Z,51.52
2022-08-22T08:54:06.809Z,49.85
2022-08-22T08:55:19.911Z,50.04
2022-08-22T08:56:07.767Z,49.43
2022-08-22T08:57:06.834Z,50.51
2022-08-22T08:58:07.275Z,48.74
2022-08-22T08:59:10.003Z,48.06
2022-08-22T09:00:06.784Z,48.33
2022-08-22T09:01:07.551Z,49.90
2022-08-22T09:02:06.720Z,49.99
2022-08-22T09:03:07.301Z,49.60
2022-08-22T09:04:06.721Z,49.60
2022-08-22T09:05:07.682Z,49.80
2022-08-22T09:06:06.716Z,48.80
2022-08-22T09:07:06.787Z,47.52
2022-08-22T09:08:06.643Z,49.48
2022-08-22T09:09:07.624Z,49.97
2022-08-22T09:10:06.705Z,48.41
2022-08-22T09:11:09.682Z,49.48
2022-08-22T09:12:06.625Z,50.12
2022-08-22T09:14:07.631Z,48.03
2022-08-22T09:15:14.141Z,47.23
2022-08-22T09:16:07.556Z,47.33
2022-08-22T09:18:07.507Z,44.64
2022-08-22T09:19:06.538Z,45.23
2022-08-22T09:20:17.525Z,46.01
2022-08-22T09:21:08.450Z,47.01
2022-08-22T09:22:06.489Z,47.99
2022-08-22T09:23:10.909Z,45.62
2022-08-22T09:24:06.480Z,48.82
2022-08-22T09:25:06.576Z,45.84
2022-08-22T09:26:06.482Z,44.55
2022-08-22T09:27:08.726Z,43.32
2022-08-22T09:28:06.423Z,44.79
2022-08-22T09:29:06.435Z,44.79
2022-08-22T09:30:06.395Z,45.16
2022-08-22T09:31:16.842Z,41.42
2022-08-22T09:32:07.354Z,44.53
2022-08-22T09:33:08.274Z,44.92
2022-08-22T09:34:06.309Z,44.24
2022-08-22T09:35:06.278Z,44.90
2022-08-22T09:36:06.746Z,46.24
2022-08-22T09:37:07.317Z,45.26
2022-08-22T09:38:06.243Z,43.80
2022-08-22T09:39:06.237Z,42.02
2022-08-22T09:40:06.255Z,41.54
2022-08-22T09:40:16.659Z,46.13
2022-08-22T09:41:06.228Z,41.91
2022-08-22T09:42:06.218Z,43.25
2022-08-22T09:43:06.180Z,42.28
2022-08-22T09:44:06.262Z,43.15
2022-08-22T09:45:06.220Z,42.18
2022-08-22T09:46:06.183Z,40.72
2022-08-22T09:47:06.170Z,41.67
2022-08-22T09:48:07.279Z,39.62
2022-08-22T09:49:06.563Z,38.56
2022-08-22T09:50:06.172Z,39.92
2022-08-22T09:51:31.319Z,39.62
2022-08-22T09:52:14.458Z,40.23
2022-08-22T09:53:07.892Z,40.23
2022-08-22T09:54:06.073Z,41.11
2022-08-22T09:55:08.542Z,41.60
2022-08-22T09:56:15.097Z,40.03
2022-08-22T09:57:07.096Z,36.63
2022-08-22T09:58:11.229Z,38.36
2022-08-22T09:59:06.654Z,38.07
2022-08-22T10:00:06.015Z,38.96
2022-08-22T10:01:06.167Z,39.10
2022-08-22T10:02:06.191Z,40.55
2022-08-22T10:03:07.047Z,40.52
2022-08-22T10:04:06.835Z,40.03
2022-08-22T10:05:05.909Z,40.95
2022-08-22T10:06:06.915Z,40.17
2022-08-22T10:07:11.152Z,40.66
2022-08-22T10:08:06.879Z,38.90
2022-08-22T10:09:05.911Z,40.66
2022-08-22T10:10:05.837Z,38.53
2022-08-22T10:11:06.683Z,39.80
2022-08-22T10:12:05.839Z,41.07
2022-08-22T10:13:10.239Z,40.78
2022-08-22T10:14:07.309Z,38.71
2022-08-22T10:15:06.722Z,38.63
2022-08-22T10:16:06.717Z,40.62
2022-08-22T10:17:07.212Z,42.35
2022-08-22T10:18:05.745Z,43.15
2022-08-22T10:19:06.013Z,43.38
2022-08-22T10:20:05.730Z,44.43
2022-08-22T10:21:05.714Z,45.06
2022-08-22T10:22:05.688Z,46.58
2022-08-22T10:23:05.684Z,44.93
2022-08-22T10:24:07.262Z,47.04
2022-08-22T10:25:05.695Z,48.82
2022-08-22T10:26:05.837Z,47.15
2022-08-22T10:27:06.417Z,43.74
2022-08-22T10:28:05.661Z,42.02
2022-08-22T10:29:05.807Z,43.32
2022-08-22T10:30:05.897Z,40.23
2022-08-22T10:31:05.566Z,41.63
2022-08-22T10:32:10.716Z,38.69
2022-08-22T10:33:06.845Z,40.41
2022-08-22T10:34:05.590Z,38.93
2022-08-22T10:35:06.367Z,38.81
2022-08-22T10:36:05.516Z,37.14
2022-08-22T10:37:05.511Z,38.09
2022-08-22T10:38:05.522Z,38.09
2022-08-22T10:39:11.474Z,36.44
2022-08-22T10:40:06.559Z,36.44
2022-08-22T10:41:09.327Z,37.70
2022-08-22T10:42:05.482Z,37.02
2022-08-22T10:43:05.426Z,36.22
2022-08-22T10:44:05.468Z,36.71
2022-08-22T10:45:05.435Z,35.64
2022-08-22T10:46:06.773Z,36.13
2022-08-22T10:47:06.434Z,35.16
2022-08-22T10:48:08.879Z,38.65
2022-08-22T10:49:05.399Z,37.39
2022-08-22T10:50:08.661Z,35.55
2022-08-22T10:51:08.772Z,35.33
2022-08-22T10:52:14.704Z,36.11
2022-08-22T10:53:06.369Z,37.54
2022-08-22T10:54:05.289Z,38.32
2022-08-22T10:55:05.754Z,39.39
2022-08-22T10:56:05.278Z,39.26
2022-08-22T10:57:06.657Z,37.78
2022-08-22T10:58:06.268Z,36.15
2022-08-22T10:59:05.266Z,36.71
2022-08-22T11:00:05.243Z,36.22
2022-08-22T11:01:38.136Z,35.72
2022-08-22T11:02:06.244Z,36.02
2022-08-22T11:03:07.841Z,35.90
2022-08-22T11:04:06.223Z,34.72
2022-08-22T11:05:05.192Z,35.48
2022-08-22T11:06:05.153Z,34.49
2022-08-22T11:07:05.289Z,35.66
2022-08-22T11:08:05.215Z,33.54
2022-08-22T11:09:05.257Z,34.62
2022-08-22T11:10:05.145Z,34.72
2022-08-22T11:11:05.194Z,34.12
2022-08-22T11:12:05.136Z,34.12
2022-08-22T11:13:05.116Z,34.78
2022-08-22T11:14:05.106Z,34.09
2022-08-22T11:15:05.126Z,32.64
2022-08-22T11:16:05.849Z,31.07
2022-08-22T11:17:23.605Z,31.47
2022-08-22T11:18:06.100Z,32.84
2022-08-22T11:19:14.921Z,34.51
2022-08-22T11:20:06.050Z,34.16
2022-08-22T11:21:05.018Z,34.17
2022-08-22T11:22:05.004Z,33.91
2022-08-22T11:23:04.958Z,34.09
2022-08-22T11:24:05.003Z,35.64
2022-08-22T11:25:05.160Z,34.77
2022-08-22T11:26:05.247Z,35.05
2022-08-22T11:27:07.218Z,34.64
2022-08-22T11:28:04.889Z,34.44
2022-08-22T11:29:13.283Z,34.72
2022-08-22T11:30:05.895Z,33.15
2022-08-22T11:31:07.050Z,34.39
2022-08-22T11:32:06.123Z,34.47
2022-08-22T11:33:05.103Z,33.59
2022-08-22T11:34:04.843Z,32.54
2022-08-22T11:35:04.824Z,34.47
2022-08-22T11:36:04.850Z,34.39
2022-08-22T11:37:04.839Z,32.59
2022-08-22T11:38:05.827Z,34.81
2022-08-22T11:39:07.919Z,32.79
2022-08-22T11:40:07.741Z,35.80
2022-08-22T11:41:04.820Z,35.21
2022-08-22T11:42:04.846Z,35.09
2022-08-22T11:43:04.994Z,35.07
2022-08-22T11:44:04.748Z,34.47
2022-08-22T11:45:04.737Z,33.02
2022-08-22T11:46:05.156Z,32.34
2022-08-22T11:47:04.690Z,32.71
2022-08-22T11:48:04.677Z,33.87
2022-08-22T11:49:05.458Z,31.83
2022-08-22T11:50:05.574Z,31.07
2022-08-22T11:51:13.118Z,33.25
2022-08-22T11:52:05.740Z,32.68
2022-08-22T11:53:07.581Z,34.38
2022-08-22T11:54:04.701Z,34.14
2022-08-22T11:55:04.573Z,37.68
2022-08-22T11:56:05.508Z,37.52
2022-08-22T11:57:04.563Z,38.43
2022-08-22T11:58:04.581Z,38.67
2022-08-22T11:59:04.565Z,38.96
2022-08-22T12:00:04.583Z,39.36
2022-08-22T12:01:04.564Z,38.45
2022-08-22T12:02:04.666Z,38.59
2022-08-22T12:03:04.514Z,38.03
2022-08-22T12:04:04.865Z,38.48
2022-08-22T12:05:05.505Z,37.41
2022-08-22T12:06:04.814Z,36.21
2022-08-22T12:07:05.309Z,35.22
2022-08-22T12:08:04.447Z,34.23
2022-08-22T12:09:05.336Z,34.20
2022-08-22T12:10:05.241Z,31.47
2022-08-22T12:11:04.677Z,34.19
2022-08-22T12:12:04.665Z,34.96
2022-08-22T12:13:05.277Z,33.12
2022-08-22T12:14:06.165Z,33.92
2022-08-22T12:15:05.130Z,35.98
2022-08-22T12:16:05.172Z,34.46
2022-08-22T12:17:04.413Z,36.52
2022-08-22T12:18:04.386Z,35.86
2022-08-22T12:19:06.302Z,34.67
2022-08-22T12:20:19.029Z,34.54
2022-08-22T12:21:05.296Z,33.94
2022-08-22T12:22:04.333Z,33.83
2022-08-22T12:23:04.593Z,36.33
2022-08-22T12:24:06.217Z,34.51
2022-08-22T12:25:04.286Z,33.07
2022-08-22T12:26:05.238Z,33.72
2022-08-22T12:27:07.919Z,37.16
2022-08-22T12:28:04.302Z,37.14
2022-08-22T12:29:04.266Z,36.04
2022-08-22T12:30:05.222Z,38.09
2022-08-22T12:31:05.196Z,35.33
2022-08-22T12:32:04.177Z,38.89
2022-08-22T12:33:04.877Z,38.84
2022-08-22T12:34:04.252Z,40.17
2022-08-22T12:35:13.810Z,40.90
2022-08-22T12:36:09.554Z,40.64
2022-08-22T12:37:05.167Z,42.05
2022-08-22T12:38:04.426Z,43.55
2022-08-22T12:39:05.124Z,43.96
2022-08-22T12:40:04.090Z,45.06
2022-08-22T12:41:08.128Z,42.13
2022-08-22T12:42:05.036Z,44.60
2022-08-22T12:43:04.058Z,43.85
2022-08-22T12:44:04.036Z,41.23
2022-08-22T12:45:04.723Z,38.73
2022-08-22T12:46:04.835Z,39.67
2022-08-22T12:47:04.237Z,34.72
2022-08-22T12:48:03.953Z,34.09
2022-08-22T12:49:07.414Z,34.43
2022-08-22T12:50:04.727Z,33.07
2022-08-22T12:51:03.955Z,31.57
2022-08-22T12:52:04.934Z,33.64
2022-08-22T12:53:03.906Z,33.11
2022-08-22T12:54:04.878Z,34.89
2022-08-22T12:55:03.935Z,31.47
2022-08-22T12:56:03.889Z,30.96
2022-08-22T12:57:03.898Z,31.41
2022-08-22T12:58:04.946Z,29.56
2022-08-22T12:59:03.820Z,30.70
2022-08-22T13:00:03.830Z,31.65
2022-08-22T13:01:03.886Z,30.40
2022-08-22T13:02:04.592Z,33.54
2022-08-22T13:03:04.759Z,30.58
2022-08-22T13:04:04.026Z,31.50
2022-08-22T13:05:03.789Z,31.44
2022-08-22T13:06:03.782Z,32.57
2022-08-22T13:07:03.836Z,35.60
2022-08-22T13:08:05.062Z,34.79
2022-08-22T13:09:03.719Z,34.83
2022-08-22T13:10:04.755Z,32.17
2022-08-22T13:11:03.686Z,33.20
2022-08-22T13:12:04.687Z,30.55
2022-08-22T13:13:03.801Z,31.59
2022-08-22T13:14:04.708Z,31.85
2022-08-22T13:15:03.894Z,30.38
2022-08-22T13:16:03.852Z,29.80
2022-08-22T13:17:23.645Z,29.32
2022-08-22T13:18:28.721Z,29.80
2022-08-22T13:19:07.820Z,29.13
2022-08-22T13:20:03.940Z,30.30
2022-08-22T13:21:03.891Z,30.44
2022-08-22T13:22:03.570Z,31.36
2022-08-22T13:23:03.650Z,31.37
2022-08-22T13:24:04.539Z,31.49
2022-08-22T13:25:04.937Z,31.18
2022-08-22T13:26:03.764Z,31.46
2022-08-22T13:27:03.499Z,31.56
2022-08-22T13:28:04.125Z,31.81
2022-08-22T13:29:24.566Z,29.85
2022-08-22T13:30:05.231Z,29.93
2022-08-22T13:31:03.463Z,30.03
2022-08-22T13:32:03.453Z,29.46
2022-08-22T13:33:03.425Z,30.83
2022-08-22T13:34:03.377Z,29.77
2022-08-22T13:35:03.478Z,30.36
2022-08-22T13:36:03.374Z,30.63
2022-08-22T13:37:03.345Z,29.38
2022-08-22T13:38:03.604Z,28.89
2022-08-22T13:39:04.128Z,30.08
2022-08-22T13:40:03.445Z,31.26
2022-08-22T13:41:03.347Z,32.24
2022-08-22T13:42:03.607Z,33.18
2022-08-22T13:43:04.300Z,34.42
2022-08-22T13:44:03.350Z,35.15
2022-08-22T13:45:04.604Z,37.15
2022-08-22T13:46:03.269Z,39.08
2022-08-22T13:47:13.586Z,38.94
2022-08-22T13:48:05.049Z,42.68
2022-08-22T13:49:03.224Z,42.43
2022-08-22T13:50:03.202Z,43.72
2022-08-22T13:51:03.212Z,43.74
2022-08-22T13:52:03.262Z,43.35
2022-08-22T13:53:03.162Z,43.35
2022-08-22T13:54:03.183Z,43.26
2022-08-22T13:55:04.833Z,43.47
2022-08-22T13:56:04.896Z,44.87
2022-08-22T13:57:03.174Z,45.06
2022-08-22T13:58:03.270Z,44.79
2022-08-22T13:59:03.095Z,44.89
2022-08-22T14:00:06.109Z,44.74
2022-08-22T14:01:03.145Z,44.53
2022-08-22T14:02:03.115Z,43.52
2022-08-22T14:03:05.371Z,42.62
2022-08-22T14:04:03.090Z,42.62
2022-08-22T14:05:04.127Z,42.91
2022-08-22T14:06:06.303Z,44.41
2022-08-22T14:07:04.494Z,44.04
2022-08-22T14:08:03.095Z,44.16
2022-08-22T14:09:03.047Z,46.14
2022-08-22T14:10:03.247Z,45.09
2022-08-22T14:11:03.925Z,45.42
2022-08-22T14:12:02.952Z,46.43
2022-08-22T14:13:03.053Z,46.53
2022-08-22T14:14:02.912Z,47.53
2022-08-22T14:15:02.960Z,47.56
2022-08-22T14:16:03.640Z,43.74
2022-08-22T14:17:02.868Z,41.89
2022-08-22T14:18:03.367Z,41.33
2022-08-22T14:19:06.237Z,39.90
2022-08-22T14:20:02.843Z,40.47
2022-08-22T14:21:02.870Z,39.67
2022-08-22T14:22:03.138Z,38.75
2022-08-22T14:23:04.705Z,39.10
2022-08-22T14:24:02.811Z,38.38
2022-08-22T14:25:02.758Z,37.97
2022-08-22T14:26:02.735Z,38.23
2022-08-22T14:27:05.435Z,37.24
2022-08-22T14:28:03.185Z,37.72
2022-08-22T14:29:03.939Z,36.24
2022-08-22T14:30:02.967Z,35.16
2022-08-22T14:31:02.687Z,35.71
2022-08-22T14:32:02.830Z,36.44
2022-08-22T14:33:02.710Z,34.30
2022-08-22T14:34:02.856Z,34.09
2022-08-22T14:35:02.700Z,33.31
2022-08-22T14:36:02.869Z,34.38
2022-08-22T14:37:02.706Z,34.09
2022-08-22T14:38:02.970Z,35.44
2022-08-22T14:39:02.818Z,35.05
2022-08-22T14:40:02.668Z,34.65
2022-08-22T14:41:03.395Z,33.95
2022-08-22T14:42:04.063Z,34.04
2022-08-22T14:43:02.634Z,33.34
2022-08-22T14:44:02.839Z,33.86
2022-08-22T14:45:02.533Z,34.04
2022-08-22T14:46:02.502Z,36.44
2022-08-22T14:47:04.177Z,37.95
2022-08-22T14:48:30.490Z,37.74
2022-08-22T14:49:04.039Z,39.45
2022-08-22T14:50:02.464Z,40.17
2022-08-22T14:51:03.861Z,40.89
2022-08-22T14:52:02.381Z,41.89
2022-08-22T14:53:02.432Z,41.75
2022-08-22T14:54:04.284Z,40.81
2022-08-22T14:55:06.242Z,39.78
2022-08-22T14:56:03.564Z,38.62
2022-08-22T14:57:02.363Z,38.70
2022-08-22T14:58:03.518Z,38.46
2022-08-22T14:59:02.313Z,37.18
2022-08-22T15:00:02.470Z,36.71
2022-08-22T15:01:02.323Z,36.15
2022-08-22T15:02:02.421Z,36.81
2022-08-22T15:03:02.285Z,36.85
2022-08-22T15:04:02.253Z,38.95
2022-08-22T15:05:02.259Z,40.13
2022-08-22T15:06:02.436Z,40.27
2022-08-22T15:07:02.225Z,40.09
2022-08-22T15:08:02.277Z,40.76
2022-08-22T15:09:07.761Z,41.05
2022-08-22T15:10:03.556Z,40.06
2022-08-22T15:11:02.201Z,40.45
2022-08-22T15:12:03.795Z,40.17
2022-08-22T15:13:02.129Z,41.03
2022-08-22T15:14:02.122Z,40.23
2022-08-22T15:15:02.117Z,41.01
2022-08-22T15:16:08.030Z,39.84
2022-08-22T15:17:03.123Z,40.00
2022-08-22T15:18:02.203Z,39.10
2022-08-22T15:19:02.074Z,39.39
2022-08-22T15:20:02.908Z,39.20
2022-08-22T15:21:02.046Z,39.18
2022-08-22T15:22:02.015Z,37.90
2022-08-22T15:23:02.370Z,37.59
2022-08-22T15:24:02.816Z,37.02
2022-08-22T15:25:01.984Z,37.14
2022-08-22T15:26:01.960Z,38.70
2022-08-22T15:27:02.766Z,38.60
2022-08-22T15:28:05.311Z,38.79
2022-08-22T15:29:02.848Z,38.42
2022-08-22T15:30:01.898Z,38.03
2022-08-22T15:31:03.746Z,38.24
2022-08-22T15:32:02.194Z,39.31
2022-08-22T15:33:02.094Z,40.29
2022-08-22T15:34:01.912Z,40.37
2022-08-22T15:35:03.834Z,39.80
2022-08-22T15:36:01.801Z,38.91
2022-08-22T15:37:01.833Z,39.41
2022-08-22T15:38:02.793Z,39.53
2022-08-22T15:39:01.824Z,41.11
2022-08-22T15:40:02.970Z,41.15
2022-08-22T15:41:02.823Z,40.68
2022-08-22T15:42:01.767Z,41.56
2022-08-22T15:43:01.782Z,42.12
2022-08-22T15:44:01.730Z,41.61
2022-08-22T15:45:01.756Z,42.00
2022-08-22T15:46:01.699Z,40.23
2022-08-22T15:47:03.169Z,39.84
2022-08-22T15:48:01.676Z,40.72
2022-08-22T15:49:01.685Z,39.62
2022-08-22T15:50:01.746Z,40.31
2022-08-22T15:51:01.715Z,41.20
2022-08-22T15:52:01.830Z,41.71
2022-08-22T15:53:04.879Z,43.26
2022-08-22T15:54:01.591Z,43.81
2022-08-22T15:55:01.620Z,44.85
2022-08-22T15:56:04.928Z,46.78
2022-08-22T15:57:01.546Z,48.03
2022-08-22T15:58:02.508Z,49.95
2022-08-22T15:59:02.291Z,49.80
2022-08-22T16:00:02.387Z,50.63
2022-08-22T16:01:02.252Z,51.45
2022-08-22T16:02:04.244Z,52.66
2022-08-22T16:03:01.757Z,52.21
2022-08-22T16:04:01.852Z,53.42
2022-08-22T16:05:01.425Z,53.94
2022-08-22T16:06:01.414Z,54.53
2022-08-22T16:07:01.417Z,55.35
2022-08-22T16:08:02.354Z,52.87
2022-08-22T16:09:02.257Z,51.42
2022-08-22T16:10:01.890Z,50.59
2022-08-22T16:11:02.336Z,48.35
2022-08-22T16:12:01.914Z,48.28
2022-08-22T16:13:01.397Z,46.95
2022-08-22T16:14:01.937Z,45.76
2022-08-22T16:15:01.898Z,46.01
2022-08-22T16:16:01.880Z,45.50
2022-08-22T16:17:01.932Z,44.10
2022-08-22T16:18:01.264Z,43.52
2022-08-22T16:19:02.069Z,43.71
2022-08-22T16:20:02.221Z,44.01
2022-08-22T16:21:01.211Z,44.10
2022-08-22T16:22:02.039Z,43.52
2022-08-22T16:23:01.937Z,45.18
2022-08-22T16:24:01.177Z,44.77
2022-08-22T16:25:01.583Z,43.52
2022-08-22T16:26:01.983Z,44.01
2022-08-22T16:27:02.068Z,45.30
2022-08-22T16:28:01.208Z,45.10
2022-08-22T16:29:01.877Z,44.62
2022-08-22T16:30:02.085Z,42.97
2022-08-22T16:31:01.088Z,43.56
2022-08-22T16:32:01.076Z,44.05
2022-08-22T16:33:01.068Z,43.37
2022-08-22T16:34:01.075Z,44.32
2022-08-22T16:35:01.813Z,43.46
2022-08-22T16:36:01.017Z,42.58
2022-08-22T16:37:01.029Z,43.37
2022-08-22T16:38:01.141Z,42.80
2022-08-22T16:39:00.973Z,42.70
2022-08-22T16:40:01.061Z,43.77
2022-08-22T16:41:01.053Z,43.41
2022-08-22T16:42:01.030Z,44.09
2022-08-22T16:43:00.881Z,44.41
2022-08-22T16:44:00.902Z,45.09
2022-08-22T16:45:00.932Z,45.49
2022-08-22T16:46:00.885Z,45.61
2022-08-22T16:47:00.855Z,45.95
2022-08-22T16:48:01.845Z,46.09
2022-08-22T16:49:00.994Z,48.05
2022-08-22T16:50:01.076Z,47.80
2022-08-22T16:51:01.034Z,49.30
2022-08-22T16:52:01.016Z,49.16
2022-08-22T16:53:01.077Z,49.40
2022-08-22T16:54:01.037Z,50.54
2022-08-22T16:55:01.007Z,51.77
2022-08-22T16:56:01.086Z,52.01
2022-08-22T16:57:00.756Z,53.72
2022-08-22T16:58:06.468Z,53.55
2022-08-22T16:59:14.077Z,54.57
2022-08-22T17:00:02.508Z,55.39
2022-08-22T17:01:00.667Z,56.51
2022-08-22T17:02:01.012Z,56.80
2022-08-22T17:03:00.679Z,56.83
2022-08-22T17:04:01.020Z,57.25
2022-08-22T17:05:00.580Z,58.64
2022-08-22T17:06:01.062Z,59.17
2022-08-22T17:07:01.040Z,58.67
2022-08-22T17:08:01.292Z,58.70
2022-08-22T17:09:00.596Z,58.90
2022-08-22T17:10:00.542Z,60.71
2022-08-22T17:11:00.501Z,61.71
2022-08-22T17:12:00.664Z,61.01
2022-08-22T17:13:00.533Z,60.94
2022-08-22T17:14:00.503Z,61.34
2022-08-22T17:15:00.445Z,61.87
2022-08-22T17:16:00.464Z,63.26
2022-08-22T17:17:00.451Z,61.37
2022-08-22T17:18:00.559Z,62.10
2022-08-22T17:19:01.855Z,62.89
2022-08-22T17:20:00.495Z,61.60
2022-08-22T17:21:00.403Z,63.42
2022-08-22T17:22:00.356Z,62.23
2022-08-22T17:23:00.344Z,62.92
2022-08-22T17:24:00.360Z,64.61
2022-08-22T17:25:00.331Z,63.32
2022-08-22T17:26:00.279Z,63.35
2022-08-22T17:27:00.328Z,63.55
2022-08-22T17:28:00.450Z,64.34
2022-08-22T17:29:00.338Z,64.84
2022-08-22T17:30:00.254Z,64.78
2022-08-22T17:31:00.210Z,66.17
2022-08-22T17:32:00.529Z,66.37
2022-08-22T17:33:00.303Z,64.18
2022-08-22T17:34:00.181Z,66.07
2022-08-22T17:35:00.319Z,65.41
2022-08-22T17:36:00.145Z,67.00
2022-08-22T17:37:00.173Z,67.90
2022-08-22T17:38:00.353Z,71.19
2022-08-22T17:39:00.216Z,71.32
2022-08-22T17:40:00.417Z,72.62
2022-08-22T17:41:00.127Z,72.81
2022-08-22T17:42:00.071Z,70.56
2022-08-22T17:43:00.105Z,69.96
2022-08-22T17:44:00.065Z,74.25
2022-08-22T17:45:01.004Z,69.89
2022-08-22T17:46:00.026Z,74.58
2022-08-22T17:47:00.030Z,73.69
2022-08-22T17:48:01.968Z,74.92
2022-08-22T17:49:00.001Z,74.22
2022-08-22T17:49:59.959Z,75.62
2022-08-22T17:50:59.959Z,71.72
2022-08-22T17:51:59.938Z,72.76
2022-08-22T17:52:59.924Z,71.36
2022-08-22T17:53:59.945Z,71.46
2022-08-22T17:54:59.919Z,72.45
2022-08-22T17:56:00.689Z,71.16
2022-08-22T17:57:05.157Z,73.29
2022-08-22T17:58:01.310Z,71.49
2022-08-22T17:58:59.847Z,72.29
2022-08-22T17:59:59.851Z,71.39
2022-08-22T18:00:59.888Z,72.19
2022-08-22T18:01:59.836Z,73.89
2022-08-22T18:02:59.968Z,72.09
2022-08-22T18:03:59.802Z,72.53
2022-08-22T18:04:59.762Z,71.83
2022-08-22T18:05:59.741Z,71.53
2022-08-22T18:06:59.782Z,71.92
2022-08-22T18:07:59.747Z,72.42
2022-08-22T18:09:15.236Z,72.03
2022-08-22T18:10:00.784Z,73.72
2022-08-22T18:10:59.695Z,72.42
2022-08-22T18:11:59.695Z,72.66
2022-08-22T18:13:02.415Z,71.56
2022-08-22T18:14:05.033Z,71.76
2022-08-22T18:14:59.696Z,72.46
2022-08-22T18:15:59.617Z,73.56
2022-08-22T18:16:59.866Z,72.16
2022-08-22T18:17:59.795Z,72.46